sensor_id;sensor_type;location;lat;lon;timestamp;temperature;humidity
11925;DHT22;6022;48.768;18.608;2024-02-21T00:01:07;6.60;99.90
11925;DHT22;6022;48.768;18.608;2024-02-21T00:03:35;6.70;99.90
11925;DHT22;6022;48.768;18.608;2024-02-21T00:06:03;6.50;99.90
11925;DHT22;6022;48.768;18.608;2024-02-21T00:08:30;6.00;99.90
11925;DHT22;6022;48.768;18.608;2024-02-21T00:10:58;6.30;99.90
11925;DHT22;6022;48.768;18.608;2024-02-21T00:13:26;6.40;99.90
11925;DHT22;6022;48.768;18.608;2024-02-21T00:15:54;6.10;99.90
11925;DHT22;6022;48.768;18.608;2024-02-21T00:18:21;5.90;99.90
11925;DHT22;6022;48.768;18.608;2024-02-21T00:20:56;6.10;99.90
11925;DHT22;6022;48.768;18.608;2024-02-21T00:23:25;6.10;99.90
11925;DHT22;6022;48.768;18.608;2024-02-21T00:25:52;5.70;99.90
11925;DHT22;6022;48.768;18.608;2024-02-21T00:28:20;6.10;99.90
11925;DHT22;6022;48.768;18.608;2024-02-21T00:30:48;6.10;99.90
11925;DHT22;6022;48.768;18.608;2024-02-21T00:33:17;6.30;99.90
11925;DHT22;6022;48.768;18.608;2024-02-21T00:35:45;6.20;99.90
11925;DHT22;6022;48.768;18.608;2024-02-21T00:38:12;6.10;99.90
11925;DHT22;6022;48.768;18.608;2024-02-21T00:40:40;6.10;99.90
11925;DHT22;6022;48.768;18.608;2024-02-21T00:43:08;5.90;99.90
11925;DHT22;6022;48.768;18.608;2024-02-21T00:45:36;5.90;99.90
11925;DHT22;6022;48.768;18.608;2024-02-21T00:48:03;5.90;99.90
11925;DHT22;6022;48.768;18.608;2024-02-21T00:50:31;5.90;99.90
11925;DHT22;6022;48.768;18.608;2024-02-21T00:52:59;5.80;99.90
11925;DHT22;6022;48.768;18.608;2024-02-21T00:55:26;5.70;99.90
11925;DHT22;6022;48.768;18.608;2024-02-21T00:57:54;5.70;99.90
11925;DHT22;6022;48.768;18.608;2024-02-21T01:00:22;5.70;99.90
11925;DHT22;6022;48.768;18.608;2024-02-21T01:02:49;5.40;99.90
11925;DHT22;6022;48.768;18.608;2024-02-21T01:05:20;5.60;99.90
11925;DHT22;6022;48.768;18.608;2024-02-21T01:07:47;5.50;99.90
11925;DHT22;6022;48.768;18.608;2024-02-21T01:10:15;5.40;99.90
11925;DHT22;6022;48.768;18.608;2024-02-21T01:12:43;5.30;99.90
11925;DHT22;6022;48.768;18.608;2024-02-21T01:15:11;5.30;99.90
11925;DHT22;6022;48.768;18.608;2024-02-21T01:17:39;5.20;99.90
11925;DHT22;6022;48.768;18.608;2024-02-21T01:20:08;5.30;99.90
11925;DHT22;6022;48.768;18.608;2024-02-21T01:22:35;5.00;99.90
11925;DHT22;6022;48.768;18.608;2024-02-21T01:25:04;5.00;99.90
11925;DHT22;6022;48.768;18.608;2024-02-21T01:27:31;4.80;99.90
11925;DHT22;6022;48.768;18.608;2024-02-21T01:29:58;5.30;99.90
11925;DHT22;6022;48.768;18.608;2024-02-21T01:32:26;5.10;99.90
11925;DHT22;6022;48.768;18.608;2024-02-21T01:34:54;5.10;99.90
11925;DHT22;6022;48.768;18.608;2024-02-21T01:37:22;5.40;99.90
11925;DHT22;6022;48.768;18.608;2024-02-21T01:39:49;5.10;99.90
11925;DHT22;6022;48.768;18.608;2024-02-21T01:42:17;5.10;99.90
11925;DHT22;6022;48.768;18.608;2024-02-21T01:44:45;4.90;99.90
11925;DHT22;6022;48.768;18.608;2024-02-21T01:47:13;5.10;99.90
11925;DHT22;6022;48.768;18.608;2024-02-21T01:49:41;5.40;99.90
11925;DHT22;6022;48.768;18.608;2024-02-21T01:52:11;5.10;99.90
11925;DHT22;6022;48.768;18.608;2024-02-21T01:54:43;5.20;99.90
11925;DHT22;6022;48.768;18.608;2024-02-21T01:57:11;4.90;99.90
11925;DHT22;6022;48.768;18.608;2024-02-21T01:59:39;5.10;99.90
11925;DHT22;6022;48.768;18.608;2024-02-21T02:02:07;5.10;99.90
11925;DHT22;6022;48.768;18.608;2024-02-21T02:04:35;5.10;99.90
11925;DHT22;6022;48.768;18.608;2024-02-21T02:07:03;5.10;99.90
11925;DHT22;6022;48.768;18.608;2024-02-21T02:09:34;5.10;99.90
11925;DHT22;6022;48.768;18.608;2024-02-21T02:12:02;5.10;99.90
11925;DHT22;6022;48.768;18.608;2024-02-21T02:14:30;5.30;99.90
11925;DHT22;6022;48.768;18.608;2024-02-21T02:16:57;4.80;99.90
11925;DHT22;6022;48.768;18.608;2024-02-21T02:19:24;5.40;99.90
11925;DHT22;6022;48.768;18.608;2024-02-21T02:21:59;5.10;99.90
11925;DHT22;6022;48.768;18.608;2024-02-21T02:24:33;5.00;99.90
11925;DHT22;6022;48.768;18.608;2024-02-21T02:27:00;5.00;99.90
11925;DHT22;6022;48.768;18.608;2024-02-21T02:29:28;5.00;99.90
11925;DHT22;6022;48.768;18.608;2024-02-21T02:31:59;5.10;99.90
11925;DHT22;6022;48.768;18.608;2024-02-21T02:34:27;5.30;99.90
11925;DHT22;6022;48.768;18.608;2024-02-21T02:36:54;5.10;99.90
11925;DHT22;6022;48.768;18.608;2024-02-21T02:39:23;5.20;99.90
11925;DHT22;6022;48.768;18.608;2024-02-21T02:41:51;4.70;99.90
11925;DHT22;6022;48.768;18.608;2024-02-21T02:44:18;5.30;99.90
11925;DHT22;6022;48.768;18.608;2024-02-21T02:46:46;5.00;99.90
11925;DHT22;6022;48.768;18.608;2024-02-21T02:49:14;5.10;99.90
11925;DHT22;6022;48.768;18.608;2024-02-21T02:51:42;5.20;99.90
11925;DHT22;6022;48.768;18.608;2024-02-21T02:54:11;5.10;99.90
11925;DHT22;6022;48.768;18.608;2024-02-21T02:56:39;5.10;99.90
11925;DHT22;6022;48.768;18.608;2024-02-21T02:59:07;5.30;99.90
11925;DHT22;6022;48.768;18.608;2024-02-21T03:01:34;4.90;99.90
11925;DHT22;6022;48.768;18.608;2024-02-21T03:04:02;4.80;99.90
11925;DHT22;6022;48.768;18.608;2024-02-21T03:06:30;4.60;99.90
11925;DHT22;6022;48.768;18.608;2024-02-21T03:08:57;4.50;99.90
11925;DHT22;6022;48.768;18.608;2024-02-21T03:11:27;4.50;99.90
11925;DHT22;6022;48.768;18.608;2024-02-21T03:13:57;4.60;99.90
11925;DHT22;6022;48.768;18.608;2024-02-21T03:16:25;4.50;99.90
11925;DHT22;6022;48.768;18.608;2024-02-21T03:18:53;4.50;99.90
11925;DHT22;6022;48.768;18.608;2024-02-21T03:21:20;4.60;99.90
11925;DHT22;6022;48.768;18.608;2024-02-21T03:23:48;4.10;99.90
11925;DHT22;6022;48.768;18.608;2024-02-21T03:26:15;4.40;99.90
11925;DHT22;6022;48.768;18.608;2024-02-21T03:28:44;4.30;99.90
11925;DHT22;6022;48.768;18.608;2024-02-21T03:31:15;4.50;99.90
11925;DHT22;6022;48.768;18.608;2024-02-21T03:33:43;4.50;99.90
11925;DHT22;6022;48.768;18.608;2024-02-21T03:36:14;4.10;99.90
11925;DHT22;6022;48.768;18.608;2024-02-21T03:38:44;4.40;99.90
11925;DHT22;6022;48.768;18.608;2024-02-21T03:41:12;4.30;99.90
11925;DHT22;6022;48.768;18.608;2024-02-21T03:43:40;4.40;99.90
11925;DHT22;6022;48.768;18.608;2024-02-21T03:46:07;4.60;99.90
11925;DHT22;6022;48.768;18.608;2024-02-21T03:48:36;4.20;99.90
11925;DHT22;6022;48.768;18.608;2024-02-21T03:51:04;4.30;99.90
11925;DHT22;6022;48.768;18.608;2024-02-21T03:53:32;4.30;99.90
11925;DHT22;6022;48.768;18.608;2024-02-21T03:56:03;4.40;99.90
11925;DHT22;6022;48.768;18.608;2024-02-21T03:58:31;4.50;99.90
11925;DHT22;6022;48.768;18.608;2024-02-21T04:01:03;4.10;99.90
11925;DHT22;6022;48.768;18.608;2024-02-21T04:03:33;3.90;99.90
11925;DHT22;6022;48.768;18.608;2024-02-21T04:06:01;4.00;99.90
11925;DHT22;6022;48.768;18.608;2024-02-21T04:08:28;3.90;99.90
11925;DHT22;6022;48.768;18.608;2024-02-21T04:10:56;3.90;99.90
11925;DHT22;6022;48.768;18.608;2024-02-21T04:13:23;3.50;99.90
11925;DHT22;6022;48.768;18.608;2024-02-21T04:15:51;3.70;99.90
11925;DHT22;6022;48.768;18.608;2024-02-21T04:18:18;3.70;99.90
11925;DHT22;6022;48.768;18.608;2024-02-21T04:20:47;4.00;99.90
11925;DHT22;6022;48.768;18.608;2024-02-21T04:23:15;3.40;99.90
11925;DHT22;6022;48.768;18.608;2024-02-21T04:25:43;3.90;99.90
11925;DHT22;6022;48.768;18.608;2024-02-21T04:28:10;3.70;99.90
11925;DHT22;6022;48.768;18.608;2024-02-21T04:30:39;3.50;99.90
11925;DHT22;6022;48.768;18.608;2024-02-21T04:33:06;3.80;99.90
11925;DHT22;6022;48.768;18.608;2024-02-21T04:35:36;3.40;99.90
11925;DHT22;6022;48.768;18.608;2024-02-21T04:38:04;3.30;99.90
11925;DHT22;6022;48.768;18.608;2024-02-21T04:40:32;3.60;99.90
11925;DHT22;6022;48.768;18.608;2024-02-21T04:42:59;3.30;99.90
11925;DHT22;6022;48.768;18.608;2024-02-21T04:45:27;3.30;99.90
11925;DHT22;6022;48.768;18.608;2024-02-21T04:47:55;3.40;99.90
11925;DHT22;6022;48.768;18.608;2024-02-21T04:50:23;3.60;99.90
11925;DHT22;6022;48.768;18.608;2024-02-21T04:52:50;3.40;99.90
11925;DHT22;6022;48.768;18.608;2024-02-21T04:55:18;3.40;99.90
11925;DHT22;6022;48.768;18.608;2024-02-21T04:57:46;3.60;99.90
11925;DHT22;6022;48.768;18.608;2024-02-21T05:00:15;3.20;99.90
11925;DHT22;6022;48.768;18.608;2024-02-21T05:02:42;3.40;99.90
11925;DHT22;6022;48.768;18.608;2024-02-21T05:05:11;3.20;99.90
11925;DHT22;6022;48.768;18.608;2024-02-21T05:07:39;3.50;99.90
11925;DHT22;6022;48.768;18.608;2024-02-21T05:10:07;3.00;99.90
11925;DHT22;6022;48.768;18.608;2024-02-21T05:12:36;3.50;99.90
11925;DHT22;6022;48.768;18.608;2024-02-21T05:15:05;3.30;99.90
11925;DHT22;6022;48.768;18.608;2024-02-21T05:17:34;3.30;99.90
11925;DHT22;6022;48.768;18.608;2024-02-21T05:20:03;3.00;99.90
11925;DHT22;6022;48.768;18.608;2024-02-21T05:22:31;3.00;99.90
11925;DHT22;6022;48.768;18.608;2024-02-21T05:25:00;3.00;99.90
11925;DHT22;6022;48.768;18.608;2024-02-21T05:27:28;3.00;99.90
11925;DHT22;6022;48.768;18.608;2024-02-21T05:29:56;3.20;99.90
11925;DHT22;6022;48.768;18.608;2024-02-21T05:32:26;3.00;99.90
11925;DHT22;6022;48.768;18.608;2024-02-21T05:34:54;3.10;99.90
11925;DHT22;6022;48.768;18.608;2024-02-21T05:37:22;3.10;99.90
11925;DHT22;6022;48.768;18.608;2024-02-21T05:39:50;3.00;99.90
11925;DHT22;6022;48.768;18.608;2024-02-21T05:42:18;3.00;99.90
11925;DHT22;6022;48.768;18.608;2024-02-21T05:44:46;3.30;99.90
11925;DHT22;6022;48.768;18.608;2024-02-21T05:47:16;3.50;99.90
11925;DHT22;6022;48.768;18.608;2024-02-21T05:49:44;3.50;99.90
11925;DHT22;6022;48.768;18.608;2024-02-21T05:52:12;3.20;99.90
11925;DHT22;6022;48.768;18.608;2024-02-21T05:54:40;3.30;99.90
11925;DHT22;6022;48.768;18.608;2024-02-21T05:57:09;3.20;99.90
11925;DHT22;6022;48.768;18.608;2024-02-21T05:59:38;3.20;99.90
11925;DHT22;6022;48.768;18.608;2024-02-21T06:02:07;3.30;99.90
11925;DHT22;6022;48.768;18.608;2024-02-21T06:04:35;3.30;99.90
11925;DHT22;6022;48.768;18.608;2024-02-21T06:07:06;3.60;99.90
11925;DHT22;6022;48.768;18.608;2024-02-21T06:09:34;3.40;99.90
11925;DHT22;6022;48.768;18.608;2024-02-21T06:12:02;3.20;99.90
11925;DHT22;6022;48.768;18.608;2024-02-21T06:14:30;3.40;99.90
11925;DHT22;6022;48.768;18.608;2024-02-21T06:16:58;3.80;99.90
11925;DHT22;6022;48.768;18.608;2024-02-21T06:19:32;3.70;99.90
11925;DHT22;6022;48.768;18.608;2024-02-21T06:22:00;4.20;99.90
11925;DHT22;6022;48.768;18.608;2024-02-21T06:24:28;4.10;99.90
11925;DHT22;6022;48.768;18.608;2024-02-21T06:26:55;4.00;99.90
11925;DHT22;6022;48.768;18.608;2024-02-21T06:29:25;4.20;99.90
11925;DHT22;6022;48.768;18.608;2024-02-21T06:31:53;4.10;99.90
11925;DHT22;6022;48.768;18.608;2024-02-21T06:34:21;4.30;99.90
11925;DHT22;6022;48.768;18.608;2024-02-21T06:36:48;4.30;99.90
11925;DHT22;6022;48.768;18.608;2024-02-21T06:39:17;4.10;99.90
11925;DHT22;6022;48.768;18.608;2024-02-21T06:41:46;4.10;99.90
11925;DHT22;6022;48.768;18.608;2024-02-21T06:44:18;4.40;99.90
11925;DHT22;6022;48.768;18.608;2024-02-21T06:46:50;4.40;99.90
11925;DHT22;6022;48.768;18.608;2024-02-21T06:49:18;4.90;99.90
11925;DHT22;6022;48.768;18.608;2024-02-21T06:51:50;4.70;99.90
11925;DHT22;6022;48.768;18.608;2024-02-21T06:54:19;4.70;99.90
11925;DHT22;6022;48.768;18.608;2024-02-21T06:56:51;4.70;99.90
11925;DHT22;6022;48.768;18.608;2024-02-21T06:59:19;4.70;99.90
11925;DHT22;6022;48.768;18.608;2024-02-21T07:01:49;4.40;99.90
11925;DHT22;6022;48.768;18.608;2024-02-21T07:04:21;4.70;99.90
11925;DHT22;6022;48.768;18.608;2024-02-21T07:06:49;4.70;99.90
11925;DHT22;6022;48.768;18.608;2024-02-21T07:09:17;4.70;99.90
11925;DHT22;6022;48.768;18.608;2024-02-21T07:11:45;4.80;99.90
11925;DHT22;6022;48.768;18.608;2024-02-21T07:14:14;5.00;99.90
11925;DHT22;6022;48.768;18.608;2024-02-21T07:16:43;5.10;99.90
11925;DHT22;6022;48.768;18.608;2024-02-21T07:19:12;5.30;99.90
11925;DHT22;6022;48.768;18.608;2024-02-21T07:21:43;5.30;99.90
11925;DHT22;6022;48.768;18.608;2024-02-21T07:24:10;5.30;99.90
11925;DHT22;6022;48.768;18.608;2024-02-21T07:26:45;5.30;99.90
11925;DHT22;6022;48.768;18.608;2024-02-21T07:29:30;5.40;99.90
11925;DHT22;6022;48.768;18.608;2024-02-21T07:31:59;5.40;99.90
11925;DHT22;6022;48.768;18.608;2024-02-21T07:34:27;5.50;99.90
11925;DHT22;6022;48.768;18.608;2024-02-21T07:36:55;5.60;99.90
11925;DHT22;6022;48.768;18.608;2024-02-21T07:39:24;5.90;99.90
11925;DHT22;6022;48.768;18.608;2024-02-21T07:41:53;5.70;99.90
11925;DHT22;6022;48.768;18.608;2024-02-21T07:44:30;5.50;99.90
11925;DHT22;6022;48.768;18.608;2024-02-21T07:47:00;5.40;99.90
11925;DHT22;6022;48.768;18.608;2024-02-21T07:49:28;5.90;99.90
11925;DHT22;6022;48.768;18.608;2024-02-21T07:51:56;5.50;99.90
11925;DHT22;6022;48.768;18.608;2024-02-21T07:54:24;5.30;99.90
11925;DHT22;6022;48.768;18.608;2024-02-21T07:56:52;5.70;99.90
11925;DHT22;6022;48.768;18.608;2024-02-21T07:59:21;5.60;99.90
11925;DHT22;6022;48.768;18.608;2024-02-21T08:01:56;5.70;99.90
11925;DHT22;6022;48.768;18.608;2024-02-21T08:04:25;5.50;99.90
11925;DHT22;6022;48.768;18.608;2024-02-21T08:06:54;5.60;99.90
11925;DHT22;6022;48.768;18.608;2024-02-21T08:09:26;5.60;99.90
11925;DHT22;6022;48.768;18.608;2024-02-21T08:11:54;5.60;99.90
11925;DHT22;6022;48.768;18.608;2024-02-21T08:14:23;5.70;99.90
11925;DHT22;6022;48.768;18.608;2024-02-21T08:16:52;5.90;99.90
11925;DHT22;6022;48.768;18.608;2024-02-21T08:19:22;6.00;99.90
11925;DHT22;6022;48.768;18.608;2024-02-21T08:21:50;6.10;99.90
11925;DHT22;6022;48.768;18.608;2024-02-21T08:24:18;6.00;99.90
11925;DHT22;6022;48.768;18.608;2024-02-21T08:26:46;5.90;99.90
11925;DHT22;6022;48.768;18.608;2024-02-21T08:29:14;5.90;99.90
11925;DHT22;6022;48.768;18.608;2024-02-21T08:31:43;5.70;99.90
11925;DHT22;6022;48.768;18.608;2024-02-21T08:34:12;6.00;99.90
11925;DHT22;6022;48.768;18.608;2024-02-21T08:36:41;5.90;99.90
11925;DHT22;6022;48.768;18.608;2024-02-21T08:39:10;6.00;99.90
11925;DHT22;6022;48.768;18.608;2024-02-21T08:41:38;6.30;99.90
11925;DHT22;6022;48.768;18.608;2024-02-21T08:44:23;6.10;99.90
11925;DHT22;6022;48.768;18.608;2024-02-21T08:46:54;6.10;99.90
11925;DHT22;6022;48.768;18.608;2024-02-21T08:49:24;6.20;99.90
11925;DHT22;6022;48.768;18.608;2024-02-21T08:52:01;6.20;99.90
11925;DHT22;6022;48.768;18.608;2024-02-21T08:54:33;6.20;99.90
11925;DHT22;6022;48.768;18.608;2024-02-21T08:57:04;6.20;99.90
11925;DHT22;6022;48.768;18.608;2024-02-21T08:59:32;6.40;99.90
11925;DHT22;6022;48.768;18.608;2024-02-21T09:02:04;6.40;99.90
11925;DHT22;6022;48.768;18.608;2024-02-21T09:04:34;6.40;99.90
11925;DHT22;6022;48.768;18.608;2024-02-21T09:07:02;6.20;99.90
11925;DHT22;6022;48.768;18.608;2024-02-21T09:09:31;6.20;99.90
11925;DHT22;6022;48.768;18.608;2024-02-21T09:12:03;6.30;99.90
11925;DHT22;6022;48.768;18.608;2024-02-21T09:14:35;6.40;99.90
11925;DHT22;6022;48.768;18.608;2024-02-21T09:17:06;6.50;99.90
11925;DHT22;6022;48.768;18.608;2024-02-21T09:19:35;6.40;99.90
11925;DHT22;6022;48.768;18.608;2024-02-21T09:22:03;6.70;99.90
11925;DHT22;6022;48.768;18.608;2024-02-21T09:24:31;6.80;99.90
11925;DHT22;6022;48.768;18.608;2024-02-21T09:26:59;7.00;99.90
11925;DHT22;6022;48.768;18.608;2024-02-21T09:29:27;7.00;99.90
11925;DHT22;6022;48.768;18.608;2024-02-21T09:31:55;7.30;99.90
11925;DHT22;6022;48.768;18.608;2024-02-21T09:34:23;7.50;99.90
11925;DHT22;6022;48.768;18.608;2024-02-21T09:36:51;7.20;99.90
11925;DHT22;6022;48.768;18.608;2024-02-21T09:39:20;7.10;99.90
11925;DHT22;6022;48.768;18.608;2024-02-21T09:41:53;7.50;99.90
11925;DHT22;6022;48.768;18.608;2024-02-21T09:44:37;7.60;99.90
11925;DHT22;6022;48.768;18.608;2024-02-21T09:47:33;7.60;99.90
11925;DHT22;6022;48.768;18.608;2024-02-21T09:50:07;7.60;99.90
11925;DHT22;6022;48.768;18.608;2024-02-21T09:52:36;7.70;99.90
11925;DHT22;6022;48.768;18.608;2024-02-21T09:55:06;7.70;99.90
11925;DHT22;6022;48.768;18.608;2024-02-21T09:57:38;7.70;99.90
11925;DHT22;6022;48.768;18.608;2024-02-21T10:00:07;7.70;99.90
11925;DHT22;6022;48.768;18.608;2024-02-21T10:02:35;7.80;99.90
11925;DHT22;6022;48.768;18.608;2024-02-21T10:05:04;7.80;99.90
11925;DHT22;6022;48.768;18.608;2024-02-21T10:07:35;7.90;99.90
11925;DHT22;6022;48.768;18.608;2024-02-21T10:10:04;8.00;99.90
11925;DHT22;6022;48.768;18.608;2024-02-21T10:12:32;8.20;99.90
11925;DHT22;6022;48.768;18.608;2024-02-21T10:15:04;8.20;99.90
11925;DHT22;6022;48.768;18.608;2024-02-21T10:17:33;8.30;99.90
11925;DHT22;6022;48.768;18.608;2024-02-21T10:20:12;8.50;99.90
11925;DHT22;6022;48.768;18.608;2024-02-21T10:22:42;8.30;99.90
11925;DHT22;6022;48.768;18.608;2024-02-21T10:25:11;8.60;99.90
11925;DHT22;6022;48.768;18.608;2024-02-21T10:27:40;8.30;99.90
11925;DHT22;6022;48.768;18.608;2024-02-21T10:30:13;8.60;99.90
11925;DHT22;6022;48.768;18.608;2024-02-21T10:32:52;8.60;99.90
11925;DHT22;6022;48.768;18.608;2024-02-21T10:35:28;9.00;99.90
11925;DHT22;6022;48.768;18.608;2024-02-21T10:37:58;9.60;99.90
11925;DHT22;6022;48.768;18.608;2024-02-21T10:40:30;9.90;99.90
11925;DHT22;6022;48.768;18.608;2024-02-21T10:43:01;10.90;99.90
11925;DHT22;6022;48.768;18.608;2024-02-21T10:45:33;10.60;99.90
11925;DHT22;6022;48.768;18.608;2024-02-21T10:48:13;10.90;99.90
11925;DHT22;6022;48.768;18.608;2024-02-21T10:51:03;10.90;99.90
11925;DHT22;6022;48.768;18.608;2024-02-21T10:53:36;10.70;99.90
11925;DHT22;6022;48.768;18.608;2024-02-21T10:56:26;10.70;99.90
11925;DHT22;6022;48.768;18.608;2024-02-21T10:59:01;11.50;99.90
11925;DHT22;6022;48.768;18.608;2024-02-21T11:01:32;11.60;99.90
11925;DHT22;6022;48.768;18.608;2024-02-21T11:04:05;11.50;99.90
11925;DHT22;6022;48.768;18.608;2024-02-21T11:06:36;11.40;99.90
11925;DHT22;6022;48.768;18.608;2024-02-21T11:09:09;11.50;99.90
11925;DHT22;6022;48.768;18.608;2024-02-21T11:11:45;11.50;99.90
11925;DHT22;6022;48.768;18.608;2024-02-21T11:14:20;11.30;99.90
11925;DHT22;6022;48.768;18.608;2024-02-21T11:16:48;11.40;99.90
11925;DHT22;6022;48.768;18.608;2024-02-21T11:21:50;11.10;99.90
11925;DHT22;6022;48.768;18.608;2024-02-21T11:24:32;10.80;99.90
11925;DHT22;6022;48.768;18.608;2024-02-21T11:27:22;10.80;99.90
11925;DHT22;6022;48.768;18.608;2024-02-21T11:29:57;10.50;99.90
11925;DHT22;6022;48.768;18.608;2024-02-21T11:32:26;10.30;99.90
11925;DHT22;6022;48.768;18.608;2024-02-21T11:35:02;10.00;99.90
11925;DHT22;6022;48.768;18.608;2024-02-21T11:37:35;10.10;99.90
11925;DHT22;6022;48.768;18.608;2024-02-21T11:40:07;10.20;99.90
11925;DHT22;6022;48.768;18.608;2024-02-21T11:42:39;10.40;99.90
11925;DHT22;6022;48.768;18.608;2024-02-21T11:45:07;10.20;99.90
11925;DHT22;6022;48.768;18.608;2024-02-21T11:47:36;10.20;99.90
11925;DHT22;6022;48.768;18.608;2024-02-21T11:50:10;10.40;99.90
11925;DHT22;6022;48.768;18.608;2024-02-21T11:52:39;10.40;99.90
11925;DHT22;6022;48.768;18.608;2024-02-21T11:55:07;10.50;99.90
11925;DHT22;6022;48.768;18.608;2024-02-21T11:57:37;10.30;99.90
11925;DHT22;6022;48.768;18.608;2024-02-21T12:00:15;9.90;99.90
11925;DHT22;6022;48.768;18.608;2024-02-21T12:02:44;10.40;99.90
11925;DHT22;6022;48.768;18.608;2024-02-21T12:05:15;10.20;99.90
11925;DHT22;6022;48.768;18.608;2024-02-21T12:07:43;10.10;99.90
11925;DHT22;6022;48.768;18.608;2024-02-21T12:10:12;10.20;99.90
11925;DHT22;6022;48.768;18.608;2024-02-21T12:12:40;10.40;99.90
11925;DHT22;6022;48.768;18.608;2024-02-21T12:15:08;10.30;99.90
11925;DHT22;6022;48.768;18.608;2024-02-21T12:17:37;10.50;99.90
11925;DHT22;6022;48.768;18.608;2024-02-21T12:20:08;10.60;99.90
11925;DHT22;6022;48.768;18.608;2024-02-21T12:22:39;10.80;99.90
11925;DHT22;6022;48.768;18.608;2024-02-21T12:25:20;10.90;99.90
11925;DHT22;6022;48.768;18.608;2024-02-21T12:27:54;11.30;99.90
11925;DHT22;6022;48.768;18.608;2024-02-21T12:30:22;11.10;99.90
11925;DHT22;6022;48.768;18.608;2024-02-21T12:32:50;11.50;99.90
11925;DHT22;6022;48.768;18.608;2024-02-21T12:35:20;11.40;99.90
11925;DHT22;6022;48.768;18.608;2024-02-21T12:37:48;11.30;99.90
11925;DHT22;6022;48.768;18.608;2024-02-21T12:40:17;11.40;99.90
11925;DHT22;6022;48.768;18.608;2024-02-21T12:42:50;11.50;99.90
11925;DHT22;6022;48.768;18.608;2024-02-21T12:45:19;11.70;99.90
11925;DHT22;6022;48.768;18.608;2024-02-21T12:47:47;11.90;99.90
11925;DHT22;6022;48.768;18.608;2024-02-21T12:50:15;11.70;99.90
11925;DHT22;6022;48.768;18.608;2024-02-21T12:52:42;11.60;99.90
11925;DHT22;6022;48.768;18.608;2024-02-21T12:55:11;11.60;99.90
11925;DHT22;6022;48.768;18.608;2024-02-21T12:57:40;11.70;99.90
11925;DHT22;6022;48.768;18.608;2024-02-21T13:00:09;11.30;99.90
11925;DHT22;6022;48.768;18.608;2024-02-21T13:02:47;11.10;99.90
11925;DHT22;6022;48.768;18.608;2024-02-21T13:05:15;11.00;99.90
11925;DHT22;6022;48.768;18.608;2024-02-21T13:07:43;10.60;99.90
11925;DHT22;6022;48.768;18.608;2024-02-21T13:10:11;10.60;99.90
11925;DHT22;6022;48.768;18.608;2024-02-21T13:12:39;10.60;99.90
11925;DHT22;6022;48.768;18.608;2024-02-21T13:15:07;10.40;99.90
11925;DHT22;6022;48.768;18.608;2024-02-21T13:17:39;10.40;99.90
11925;DHT22;6022;48.768;18.608;2024-02-21T13:20:07;10.30;99.90
11925;DHT22;6022;48.768;18.608;2024-02-21T13:22:35;9.90;99.90
11925;DHT22;6022;48.768;18.608;2024-02-21T13:25:04;10.00;99.90
11925;DHT22;6022;48.768;18.608;2024-02-21T13:27:34;10.00;99.90
11925;DHT22;6022;48.768;18.608;2024-02-21T13:30:02;9.90;99.90
11925;DHT22;6022;48.768;18.608;2024-02-21T13:32:33;9.80;99.90
11925;DHT22;6022;48.768;18.608;2024-02-21T13:35:00;9.80;99.90
11925;DHT22;6022;48.768;18.608;2024-02-21T13:37:28;9.60;99.90
11925;DHT22;6022;48.768;18.608;2024-02-21T13:39:56;9.80;99.90
11925;DHT22;6022;48.768;18.608;2024-02-21T13:42:24;9.80;99.90
11925;DHT22;6022;48.768;18.608;2024-02-21T13:44:54;9.80;99.90
11925;DHT22;6022;48.768;18.608;2024-02-21T13:47:22;9.70;99.90
11925;DHT22;6022;48.768;18.608;2024-02-21T13:49:49;10.10;99.90
11925;DHT22;6022;48.768;18.608;2024-02-21T13:52:17;9.60;99.90
11925;DHT22;6022;48.768;18.608;2024-02-21T13:54:50;9.60;99.90
11925;DHT22;6022;48.768;18.608;2024-02-21T13:57:18;9.50;99.90
11925;DHT22;6022;48.768;18.608;2024-02-21T13:59:46;9.50;99.90
11925;DHT22;6022;48.768;18.608;2024-02-21T14:02:14;9.50;99.90
11925;DHT22;6022;48.768;18.608;2024-02-21T14:04:43;9.80;99.90
11925;DHT22;6022;48.768;18.608;2024-02-21T14:07:10;10.00;99.90
11925;DHT22;6022;48.768;18.608;2024-02-21T14:09:38;9.60;99.90
11925;DHT22;6022;48.768;18.608;2024-02-21T14:12:06;9.80;99.90
11925;DHT22;6022;48.768;18.608;2024-02-21T14:14:35;9.90;99.90
11925;DHT22;6022;48.768;18.608;2024-02-21T14:17:06;9.90;99.90
11925;DHT22;6022;48.768;18.608;2024-02-21T14:19:34;9.90;99.90
11925;DHT22;6022;48.768;18.608;2024-02-21T14:22:02;9.90;99.90
11925;DHT22;6022;48.768;18.608;2024-02-21T14:24:29;10.00;99.90
11925;DHT22;6022;48.768;18.608;2024-02-21T14:26:58;9.90;99.90
11925;DHT22;6022;48.768;18.608;2024-02-21T14:29:27;9.90;99.90
11925;DHT22;6022;48.768;18.608;2024-02-21T14:31:55;9.90;99.90
11925;DHT22;6022;48.768;18.608;2024-02-21T14:34:25;10.00;99.90
11925;DHT22;6022;48.768;18.608;2024-02-21T14:36:54;9.80;99.90
11925;DHT22;6022;48.768;18.608;2024-02-21T14:39:21;9.80;99.90
11925;DHT22;6022;48.768;18.608;2024-02-21T14:41:50;9.40;99.90
11925;DHT22;6022;48.768;18.608;2024-02-21T14:44:18;9.80;99.90
11925;DHT22;6022;48.768;18.608;2024-02-21T14:46:45;9.70;99.90
11925;DHT22;6022;48.768;18.608;2024-02-21T14:49:13;9.70;99.90
11925;DHT22;6022;48.768;18.608;2024-02-21T14:51:45;9.70;99.90
11925;DHT22;6022;48.768;18.608;2024-02-21T14:54:13;9.80;99.90
11925;DHT22;6022;48.768;18.608;2024-02-21T14:56:41;9.60;99.90
11925;DHT22;6022;48.768;18.608;2024-02-21T14:59:11;9.50;99.90
11925;DHT22;6022;48.768;18.608;2024-02-21T15:01:51;9.80;99.90
11925;DHT22;6022;48.768;18.608;2024-02-21T15:04:19;9.70;99.90
11925;DHT22;6022;48.768;18.608;2024-02-21T15:06:46;9.50;99.90
11925;DHT22;6022;48.768;18.608;2024-02-21T15:09:15;9.50;99.90
11925;DHT22;6022;48.768;18.608;2024-02-21T15:11:46;9.50;99.90
11925;DHT22;6022;48.768;18.608;2024-02-21T15:14:14;9.70;99.90
11925;DHT22;6022;48.768;18.608;2024-02-21T15:16:42;9.50;99.90
11925;DHT22;6022;48.768;18.608;2024-02-21T15:19:09;9.50;99.90
11925;DHT22;6022;48.768;18.608;2024-02-21T15:21:37;9.50;99.90
11925;DHT22;6022;48.768;18.608;2024-02-21T15:24:04;9.30;99.90
11925;DHT22;6022;48.768;18.608;2024-02-21T15:26:32;9.40;99.90
11925;DHT22;6022;48.768;18.608;2024-02-21T15:29:00;9.30;99.90
11925;DHT22;6022;48.768;18.608;2024-02-21T15:31:28;9.30;99.90
11925;DHT22;6022;48.768;18.608;2024-02-21T15:33:56;9.40;99.90
11925;DHT22;6022;48.768;18.608;2024-02-21T15:36:24;9.20;99.90
11925;DHT22;6022;48.768;18.608;2024-02-21T15:38:52;9.20;99.90
11925;DHT22;6022;48.768;18.608;2024-02-21T15:41:23;9.20;99.90
11925;DHT22;6022;48.768;18.608;2024-02-21T15:43:52;9.30;99.90
11925;DHT22;6022;48.768;18.608;2024-02-21T15:46:22;9.10;99.90
11925;DHT22;6022;48.768;18.608;2024-02-21T15:48:50;9.00;99.90
11925;DHT22;6022;48.768;18.608;2024-02-21T15:51:22;9.10;99.90
11925;DHT22;6022;48.768;18.608;2024-02-21T15:53:50;9.10;99.90
11925;DHT22;6022;48.768;18.608;2024-02-21T15:56:18;8.90;99.90
11925;DHT22;6022;48.768;18.608;2024-02-21T15:58:47;8.70;99.90